Latest Weather Observations for Curtin

IDW60801

Issued at 6:34 pm WST Saturday 21 January 2017 (issued every 30 minutes, with the page automatically refreshed every 10 minutes)

About weather observations | Map of weather stations | Latest weather observations for WA | Other Formats
Station Details ID: 003080 Name: CURTIN AERO Lat: -17.58 Lon: 123.83 Height: 77.5 m
Data from the previous 72 hours. | See also: Recent months at Curtin
Date/Time
WST
Temp
°C
App
Temp
°C
Dew
Point
°C
Rel
Hum
%
Delta-T
°C
Wind Press
QNH
hPa
Press
MSL
hPa
Rain since
9am
mm
Dir  Spd
km/h
Gust
km/h
Spd
kts
Gust
kts
21/06:30pm 24.6 26.8 24.3 98 0.2 WNW 20 28 11 15 1007.7 1007.1 -
21/06:00pm 25.5 28.9 25.2 98 0.2 SW 17 22 9 12 1007.0 1006.4 -
21/05:30pm 25.7 28.2 24.8 95 0.6 SW 20 24 11 13 1006.5 1005.9 -
21/05:00pm 25.5 27.0 24.3 93 0.8 WSW 24 32 13 17 1006.3 1005.7 -
21/04:30pm 26.7 28.3 24.5 88 1.5 WSW 24 33 13 18 1006.0 1005.4 -
21/04:00pm 27.8 29.5 24.6 83 2.2 WSW 24 35 13 19 1005.7 1005.1 -
21/03:30pm 27.1 30.0 25.1 89 1.4 SW 19 24 10 13 1005.5 1004.9 -
21/03:00pm 26.5 27.8 24.0 86 1.7 WSW 24 32 13 17 1006.1 1005.5 -
21/02:30pm 30.2 32.2 23.6 67 4.6 WSW 19 26 10 14 1005.9 1005.3 -
21/02:00pm 31.8 32.6 21.3 53 7.1 WNW 19 24 10 13 1005.9 1005.3 -
21/01:30pm 33.1 36.0 22.5 53 7.3 NW 11 22 6 12 1006.0 1005.4 -
21/01:00pm 33.2 36.3 23.5 56 6.8 WNW 13 20 7 11 1006.3 1005.7 -
21/12:30pm 31.9 33.7 22.6 58 6.4 NW 17 26 9 14 1006.7 1006.1 -
21/12:00pm 32.1 33.8 23.1 59 6.2 NW 19 30 10 16 1006.9 1006.3 -
21/11:30am 31.6 33.1 22.0 56 6.5 NNW 17 28 9 15 1007.1 1006.5 -
21/11:00am 31.4 32.3 21.6 56 6.6 WNW 19 28 10 15 1007.3 1006.7 -
21/10:30am 30.9 31.7 21.4 57 6.4 NW 19 26 10 14 1007.7 1007.1 -
21/10:00am 30.2 32.0 22.6 63 5.2 NNW 17 26 9 14 1008.0 1007.4 -
21/09:30am 30.1 32.0 23.5 67 4.6 NW 19 24 10 13 1008.0 1007.4 -
21/09:00am 29.1 31.7 24.0 74 3.5 NW 17 24 9 13 1008.0 1007.4 -
21/08:30am 29.8 33.1 25.1 76 3.3 NW 17 24 9 13 1008.0 1007.4 -
21/08:00am 28.8 32.2 24.6 78 2.9 NW 15 26 8 14 1008.2 1007.6 -
21/07:30am 28.4 31.9 24.8 81 2.5 WNW 15 19 8 10 1008.1 1007.5 -
21/07:00am 27.3 31.7 25.1 88 1.5 WNW 11 13 6 7 1008.1 1007.5 -
21/06:30am 25.9 31.2 25.2 96 0.5 NW 7 11 4 6 1007.9 1007.3 -
21/06:00am 24.8 29.7 24.6 99 0.1 NNW 7 7 4 4 1007.5 1006.9 -
21/05:30am 24.7 29.5 24.5 99 0.1 NNW 7 9 4 5 1007.0 1006.4 -
21/05:00am 24.8 29.6 24.5 98 0.2 NNW 7 9 4 5 1006.6 1006.0 -
21/04:30am 25.1 29.9 24.4 96 0.5 NW 7 9 4 5 1006.2 1005.6 -
21/04:00am 25.6 30.1 24.6 94 0.7 WNW 9 11 5 6 1006.1 1005.5 -
21/03:30am 25.8 30.9 24.9 95 0.6 NW 7 11 4 6 1006.1 1005.5 -
21/03:00am 25.5 30.7 24.8 96 0.5 NW 6 7 3 4 1006.1 1005.5 -
21/02:30am 25.2 30.1 24.7 97 0.3 NNW 7 9 4 5 1006.1 1005.5 -
21/02:00am 25.0 29.8 24.5 97 0.3 NNW 7 9 4 5 1005.9 1005.3 -
21/01:30am 25.2 29.9 24.3 95 0.6 NNW 7 11 4 6 1006.1 1005.5 -
21/01:00am 25.4 30.2 24.4 94 0.7 NW 7 11 4 6 1006.2 1005.6 -
21/12:30am 25.6 30.0 24.4 93 0.8 WNW 9 11 5 6 1006.4 1005.8 -
21/12:00am 25.9 30.2 24.3 91 1.1 NW 9 11 5 6 1006.6 1006.0 -
 
Date/Time
WST
Temp
°C
App
Temp
°C
Dew
Point
°C
Rel
Hum
%
Delta-T
°C
Wind Press
QNH
hPa
Press
MSL
hPa
Rain since
9am
mm
Dir  Spd
km/h
Gust
km/h
Spd
kts
Gust
kts
20/11:30pm 26.2 30.5 24.2 89 1.4 NW 9 13 5 7 1006.7 1006.1 -
20/11:00pm 26.4 30.6 24.1 87 1.6 NW 9 13 5 7 1006.8 1006.2 -
20/10:30pm 26.8 31.0 24.1 85 1.9 NW 9 13 5 7 1006.9 1006.3 -
20/10:00pm 27.3 30.5 23.7 81 2.5 NW 13 24 7 13 1006.8 1006.2 -
20/09:30pm 27.5 31.1 23.7 80 2.6 NW 11 15 6 8 1006.6 1006.0 -
20/09:00pm 28.2 31.0 23.6 76 3.2 NW 15 24 8 13 1006.1 1005.5 -
20/08:30pm 28.5 31.1 23.9 76 3.2 NW 17 28 9 15 1005.6 1005.0 -
20/08:00pm 28.8 31.7 23.9 75 3.4 NW 15 22 8 12 1005.2 1004.6 -
20/07:30pm 28.7 32.5 24.7 79 2.8 NNW 13 20 7 11 1004.8 1004.2 -
20/07:00pm 29.4 33.2 24.7 76 3.3 NNW 13 22 7 12 1004.6 1004.0 -
20/06:30pm 29.8 33.0 24.4 73 3.8 NNW 15 24 8 13 1004.1 1003.5 -
20/06:00pm 30.4 32.3 23.8 68 4.6 NNW 20 32 11 17 1003.7 1003.1 -
20/05:30pm 30.9 33.2 23.5 64 5.1 NNW 17 28 9 15 1003.4 1002.8 -
20/05:00pm 31.4 33.1 23.0 61 5.8 NNW 19 28 10 15 1003.1 1002.5 -
20/04:30pm 31.3 32.3 22.9 61 5.8 NNW 22 35 12 19 1002.8 1002.2 -
20/04:00pm 31.9 33.9 24.0 63 5.5 NNW 20 30 11 16 1002.6 1001.9 -
20/03:30pm 32.8 35.5 24.8 62 5.7 NNW 19 35 10 19 1002.5 1001.8 -
20/03:00pm 32.6 34.9 24.1 61 6.0 NW 19 26 10 14 1002.7 1002.1 -
20/02:30pm 32.6 34.5 23.8 59 6.1 NW 20 28 11 15 1002.8 1002.2 -
20/02:00pm 31.4 33.9 23.8 64 5.3 NW 17 26 9 14 1003.1 1002.5 -
20/01:30pm 32.0 33.9 23.5 60 5.9 NW 19 28 10 15 1003.3 1002.7 -
20/01:00pm 31.9 33.8 23.4 60 5.9 NNW 19 26 10 14 1003.8 1003.2 -
20/12:30pm 32.2 35.4 25.5 67 4.8 NW 19 28 10 15 1004.3 1003.7 -
20/12:00pm 31.4 33.8 24.3 66 5.0 NW 19 28 10 15 1004.7 1004.1 -
20/11:30am 30.5 32.7 23.9 68 4.6 NNW 19 28 10 15 1005.2 1004.6 -
20/11:00am 31.1 34.3 25.0 70 4.3 NW 17 26 9 14 1005.6 1005.0 0.0
20/10:30am 30.9 33.4 24.5 68 4.5 NW 19 26 10 14 1005.7 1005.1 0.0
20/10:00am 30.1 33.5 25.2 75 3.5 NW 17 28 9 15 1006.0 1005.4 0.0
20/09:30am 29.7 32.8 25.4 78 3.0 NNW 19 28 10 15 1005.9 1005.3 0.0
20/09:00am 28.5 32.0 25.5 84 2.1 NNW 17 26 9 14 1006.0 1005.4 0.2
20/08:30am 27.9 32.9 26.5 92 1.0 NNW 13 17 7 9 1005.9 1005.3 0.2
20/08:00am 27.0 32.2 26.3 96 0.5 NNW 11 15 6 8 1005.7 1005.1 0.2
20/07:30am 26.6 32.4 26.6 100 0.0 N 9 13 5 7 1005.5 1004.9 0.2
20/07:00am 26.0 31.8 26.0 100 0.0 NNW 7 11 4 6 1005.3 1004.7 0.2
20/06:30am 25.6 31.1 25.6 100 0.0 N 7 9 4 5 1004.9 1004.3 0.2
20/06:00am 25.0 30.1 25.0 100 0.0 N 7 9 4 5 1004.7 1004.1 0.2
20/05:30am 24.6 29.5 24.6 100 0.0 N 7 9 4 5 1004.6 1004.0 0.2
20/05:00am 24.6 29.5 24.6 100 0.0 N 7 9 4 5 1004.7 1004.1 0.2
20/04:30am 24.5 29.3 24.5 100 0.0 N 7 9 4 5 1004.3 1003.7 0.2
20/04:00am 24.7 29.6 24.7 100 0.0 N 7 9 4 5 1004.3 1003.7 0.2
20/03:30am 24.8 29.8 24.8 100 0.0 N 7 9 4 5 1004.1 1003.5 0.2
20/03:00am 25.0 30.1 25.0 100 0.0 N 7 9 4 5 1004.3 1003.7 0.2
20/02:30am 25.2 30.5 25.2 100 0.0 N 7 9 4 5 1004.3 1003.7 0.2
20/02:00am 25.4 30.8 25.4 100 0.0 NNE 7 7 4 4 1004.2 1003.6 0.2
20/01:38am 25.5 30.9 25.5 100 0.0 N 7 9 4 5 1004.2 1003.6 0.2
20/01:30am 25.6 31.1 25.6 100 0.0 N 7 9 4 5 1004.1 1003.5 0.2
20/01:00am 25.6 31.1 25.6 100 0.0 N 7 7 4 4 1004.4 1003.8 0.2
20/12:30am 25.7 31.8 25.7 100 0.0 NNW 4 7 2 4 1004.7 1004.1 0.2
20/12:00am 25.8 31.4 25.8 100 0.0 NNW 7 11 4 6 1005.1 1004.5 0.2
 
Date/Time
WST
Temp
°C
App
Temp
°C
Dew
Point
°C
Rel
Hum
%
Delta-T
°C
Wind Press
QNH
hPa
Press
MSL
hPa
Rain since
9am
mm
Dir  Spd
km/h
Gust
km/h
Spd
kts
Gust
kts
19/11:30pm 25.9 31.6 25.9 100 0.0 NNW 7 9 4 5 1005.4 1004.8 0.2
19/11:00pm 26.0 32.0 26.0 100 0.0 NNW 6 7 3 4 1005.8 1005.2 0.2
19/10:30pm 25.9 31.8 25.9 100 0.0 NW 6 7 3 4 1006.1 1005.5 0.2
19/10:00pm 25.9 32.9 25.9 100 0.0 CALM 0 0 0 0 1006.3 1005.7 0.2
19/09:30pm 25.8 32.4 25.8 100 0.0 NW 2 6 1 3 1006.3 1005.7 0.2
19/09:00pm 25.8 31.6 25.8 100 0.0 WNW 6 9 3 5 1006.0 1005.4 0.2
19/08:30pm 25.7 31.5 25.7 100 0.0 W 6 7 3 4 1005.5 1004.9 0.2
19/08:00pm 25.8 31.4 25.8 100 0.0 W 7 11 4 6 1005.4 1004.8 0.2
19/07:30pm 25.9 30.8 25.9 100 0.0 W 11 19 6 10 1005.2 1004.6 0.2
19/07:00pm 26.8 32.1 26.5 98 0.2 NW 11 17 6 9 1004.8 1004.2 0.2
19/06:30pm 26.5 33.5 26.5 100 0.0 WNW 2 9 1 5 1004.7 1004.1 0.0
19/06:02pm 26.6 33.0 26.6 100 0.0 NW 6 7 3 4 1004.6 1004.0 0.0
19/06:00pm 26.6 33.0 26.6 100 0.0 WNW 6 7 3 4 1004.5 1003.9 0.0
19/05:30pm 26.7 32.4 26.5 99 0.1 NNW 9 19 5 10 1004.5 1003.9 0.0
19/05:13pm 27.0 32.7 27.0 100 0.0 NNW 11 19 6 10 1004.3 1003.7 0.0
19/05:00pm 27.3 32.8 27.3 100 0.0 NW 13 22 7 12 1004.1 1003.5 0.0
19/04:30pm 27.9 33.0 26.7 93 0.9 NNW 13 19 7 10 1003.7 1003.1 0.0
19/04:00pm 27.5 32.6 26.1 92 1.0 NNW 11 19 6 10 1003.6 1003.0 0.0
19/03:35pm 26.8 30.9 25.8 94 0.7 NNW 15 24 8 13 1003.8 1003.2 0.0
19/03:30pm 26.8 31.1 26.1 96 0.5 NNW 15 20 8 11 1003.9 1003.3 0.0
19/03:13pm 27.1 32.1 27.1 100 0.0 NW 15 20 8 11 1004.2 1003.6 0.0
19/03:00pm 27.3 32.8 27.3 100 0.0 NW 13 19 7 10 1004.3 1003.7 0.0
19/02:30pm 26.0 30.2 26.0 100 0.0 NW 15 20 8 11 1004.5 1003.9 0.0
19/02:00pm 27.0 31.9 27.0 100 0.0 NW 15 24 8 13 1004.7 1004.1 0.0
19/01:30pm 26.1 30.0 26.1 100 0.0 W 17 26 9 14 1004.9 1004.3 0.0
19/01:04pm 29.5 30.6 23.7 71 4.0 NW 24 54 13 29 1005.1 1004.5 0.0
19/01:00pm 30.8 33.4 24.9 71 4.2 NNW 20 30 11 16 1005.0 1004.4 0.0
19/12:30pm 31.4 33.7 24.5 67 4.8 NNW 20 33 11 18 1005.5 1004.9 0.0
19/12:00pm 31.4 33.3 25.0 69 4.5 NNW 24 35 13 19 1005.8 1005.2 0.0
19/11:30am 31.6 34.3 25.0 68 4.7 NW 20 35 11 19 1006.0 1005.4 0.0
19/11:00am 31.0 33.6 24.9 70 4.3 NW 20 30 11 16 1006.4 1005.8 0.0
19/10:30am 29.6 35.3 27.0 86 1.9 NNW 11 19 6 10 1006.9 1006.3 0.0
19/10:00am 29.7 33.1 25.2 77 3.2 NW 17 26 9 14 1007.3 1006.7 0.0
19/09:30am 29.8 34.2 26.8 84 2.2 NNW 17 24 9 13 1007.5 1006.9 0.0
19/09:00am 28.6 33.6 26.6 89 1.4 NNW 13 20 7 11 1007.7 1007.1 0.2
19/08:30am 28.4 34.6 27.2 93 0.9 NNW 9 15 5 8 1007.7 1007.1 0.2
19/08:00am 27.7 33.9 27.2 97 0.4 N 9 13 5 7 1007.7 1007.1 0.2
19/07:30am 27.4 33.6 27.2 99 0.1 NNE 9 15 5 8 1007.6 1007.0 0.2
19/07:00am 26.2 31.7 26.2 100 0.0 NNE 9 13 5 7 1007.3 1006.7 0.2
19/06:30am 25.7 31.3 25.7 100 0.0 NNE 7 9 4 5 1007.3 1006.7 0.2
19/06:00am 25.2 30.6 25.2 100 0.0 N 6 7 3 4 1007.1 1006.5 0.2
19/05:30am 25.0 30.3 25.0 100 0.0 NNW 6 9 3 5 1007.1 1006.5 0.2
19/05:00am 24.9 30.0 24.9 100 0.0 N 7 9 4 5 1006.7 1006.1 0.2
19/04:30am 25.0 30.1 25.0 100 0.0 N 7 9 4 5 1006.4 1005.8 0.2
19/04:00am 25.2 31.0 25.2 100 0.0 NNW 4 6 2 3 1006.2 1005.6 0.2
19/03:30am 25.2 30.6 25.2 100 0.0 NNW 6 9 3 5 1006.4 1005.8 0.2
19/03:00am 25.4 30.4 25.4 100 0.0 NW 9 13 5 7 1006.5 1005.9 0.2
19/02:30am 25.5 30.6 25.5 100 0.0 NNW 9 11 5 6 1006.2 1005.6 0.2
19/02:00am 25.4 30.8 25.4 100 0.0 N 7 13 4 7 1006.4 1005.8 0.2
19/01:30am 25.4 30.4 25.4 100 0.0 N 9 13 5 7 1006.6 1006.0 0.2
19/01:00am 25.2 30.5 25.2 100 0.0 N 7 11 4 6 1006.8 1006.2 0.2
19/12:30am 25.2 30.5 25.2 100 0.0 N 7 11 4 6 1006.9 1006.3 0.2
19/12:00am 25.1 29.9 25.1 100 0.0 N 9 11 5 6 1007.2 1006.6 0.2
 
Date/Time
WST
Temp
°C
App
Temp
°C
Dew
Point
°C
Rel
Hum
%
Delta-T
°C
Wind Press
QNH
hPa
Press
MSL
hPa
Rain since
9am
mm
Dir  Spd
km/h
Gust
km/h
Spd
kts
Gust
kts
18/11:30pm 25.1 29.9 25.1 100 0.0 N 9 13 5 7 1007.8 1007.2 0.2
18/11:00pm 24.9 29.6 24.9 100 0.0 N 9 13 5 7 1008.2 1007.6 0.2
18/10:30pm 25.0 30.1 25.0 100 0.0 N 7 9 4 5 1008.3 1007.7 0.2
18/10:00pm 25.0 30.3 25.0 100 0.0 N 6 7 3 4 1008.2 1007.6 0.2
18/09:30pm 25.0 30.7 25.0 100 0.0 NNE 4 6 2 3 1007.7 1007.1 0.2
18/09:00pm 24.9 30.2 24.9 100 0.0 N 6 7 3 4 1007.1 1006.5 0.2
18/08:30pm 24.9 30.0 24.9 100 0.0 NNE 7 7 4 4 1006.4 1005.8 0.2
18/08:00pm 25.0 30.1 25.0 100 0.0 N 7 9 4 5 1005.8 1005.2 0.2
18/07:30pm 25.1 30.3 25.1 100 0.0 N 7 11 4 6 1005.6 1005.0 0.2
18/07:00pm 25.2 29.9 25.0 99 0.1 N 9 13 5 7 1005.7 1005.1 0.2

Other Formats:

Comma delimited format used in spreadsheet applications
http://www.bom.gov.au/fwo/IDW60801/IDW60801.94204.axf

JavaScript Object Notation format (JSON) in row-major order
http://www.bom.gov.au/fwo/IDW60801/IDW60801.94204.json